F/V Les Menhirs — FGJI — position and weather

sailwx.info

Track history (hours):
 
Tides and Currents Weather Stations Pressure Air Temp Water Temp Dewpoint Dewpoint Depression Visibility Wind Speed Wind Dir Waves Ship Positions

F/V Les Menhirs

Last reported at 2017-Nov-20 00:17 UTC. Time now 2017-Nov-20 23:05 UTC.
Position N 46°49' W 003°32'.

Length 18 m.

Type: Fishing. MMSI: 228138000.

Date/timePositionNaut miles runAvg speedWind from/ knotsBaromVisibWave heightAir tempDewpointWater temp
2017-Nov-20 00:17N 46°49' W 003°32'10 3.1
2017-Nov-19 21:11N 46°43' W 003°22'3 0.2
2017-Nov-19 08:56N 46°41' W 003°21'6 3.2
2017-Nov-19 07:05N 46°36' W 003°15'1 3.2
2017-Nov-19 06:52N 46°36' W 003°15'2 0.9
2017-Nov-19 05:00N 46°37' W 003°13'12 3.0
2017-Nov-19 00:53N 46°44' W 003°27'0 0.0
2017-Nov-18 20:20N 46°45' W 003°27'1 3.2
2017-Nov-18 19:52N 46°43' W 003°27'3 3.0
2017-Nov-18 18:53N 46°42' W 003°23'1 0.5
2017-Nov-18 16:10N 46°42' W 003°25'1 3.1
2017-Nov-18 16:00N 46°42' W 003°25'4 2.5
2017-Nov-18 14:26N 46°39' W 003°22'1 0.2
2017-Nov-18 09:41N 46°39' W 003°20'2 3.4
2017-Nov-18 09:15N 46°38' W 003°19'1 3.6
2017-Nov-18 08:57N 46°37' W 003°18'2 3.2
2017-Nov-18 08:26N 46°36' W 003°17'8 1.3
2017-Nov-18 02:18N 46°43' W 003°19'30 2.2
2017-Nov-17 12:34N 47°13' W 003°26'1 8.8
2017-Nov-17 12:27N 47°14' W 003°26'4 8.8
2017-Nov-17 12:00N 47°18' W 003°24'4 8.8
2017-Nov-17 11:30N 47°22' W 003°23'4 8.7
2017-Nov-17 11:00N 47°26' W 003°21'4 8.9
2017-Nov-17 10:30N 47°30' W 003°22'4 9.0
2017-Nov-17 10:00N 47°35' W 003°23'4 8.9
2017-Nov-17 09:30N 47°39' W 003°22'4 8.7
2017-Nov-17 09:00N 47°44' W 003°22'0 0.0
2017-Nov-17 08:30N 47°44' W 003°22'0 0.0
2017-Nov-17 08:00N 47°44' W 003°22'0 0.0
2017-Nov-17 07:30N 47°44' W 003°22'0 0.0
2017-Nov-17 07:00N 47°44' W 003°22'0 0.0
2017-Nov-17 06:30N 47°44' W 003°22'0 0.0
2017-Nov-17 06:00N 47°44' W 003°22'0 0.0
2017-Nov-17 05:30N 47°44' W 003°22'0 0.0
2017-Nov-17 05:00N 47°44' W 003°22'0 0.0
2017-Nov-17 04:30N 47°44' W 003°22'0 0.0
2017-Nov-17 04:00N 47°44' W 003°22'0 0.0
2017-Nov-17 03:30N 47°44' W 003°22'0 0.0
2017-Nov-17 03:00N 47°44' W 003°22'0 0.0
2017-Nov-17 02:30N 47°44' W 003°22'0 0.2
2017-Nov-17 02:00N 47°44' W 003°22'0 0.3
2017-Nov-17 01:30N 47°44' W 003°22'0 0.0
2017-Nov-17 01:00N 47°44' W 003°22'0 0.0
2017-Nov-17 00:30N 47°44' W 003°22'4 8.1
2017-Nov-17 00:00N 47°40' W 003°22'5 9.5
2017-Nov-16 23:30N 47°35' W 003°22'5 9.4
2017-Nov-16 23:00N 47°30' W 003°21'5 9.6
2017-Nov-16 22:30N 47°26' W 003°20'5 9.7
2017-Nov-16 22:00N 47°21' W 003°20'5 9.6
2017-Nov-16 21:30N 47°16' W 003°20'5 9.4
2017-Nov-16 20:57N 47°11' W 003°19'4 9.3
2017-Nov-16 20:29N 47°06' W 003°18'5 9.4
2017-Nov-16 20:00N 47°02' W 003°18'5 9.2
2017-Nov-16 19:30N 46°57' W 003°17'5 9.1
2017-Nov-16 18:59N 46°53' W 003°16'5 7.2
2017-Nov-16 18:15N 46°47' W 003°16'3 3.0
2017-Nov-16 17:13N 46°45' W 003°14'3 3.2
2017-Nov-16 16:18N 46°42' W 003°14'1 3.3
2017-Nov-16 15:53N 46°40' W 003°14'1 1.7
2017-Nov-16 15:28N 46°40' W 003°14'1 3.1
2017-Nov-16 15:00N 46°38' W 003°13'2 3.1
2017-Nov-16 14:30N 46°37' W 003°12'2 2.6
2017-Nov-16 13:49N 46°35' W 003°11'1 3.3
2017-Nov-16 13:29N 46°34' W 003°11'2 3.2
2017-Nov-16 13:00N 46°33' W 003°10'2 3.3
2017-Nov-16 12:30N 46°31' W 003°09'3 3.2
2017-Nov-16 11:38N 46°29' W 003°06'0 3.4
2017-Nov-16 11:30N 46°29' W 003°06'2 3.5
2017-Nov-16 11:00N 46°27' W 003°05'2 3.4
2017-Nov-16 10:29N 46°25' W 003°04'1 2.8
2017-Nov-16 10:00N 46°24' W 003°04'4 0.3
2017-Nov-15 21:40N 46°27' W 003°05'0 0.8
2017-Nov-15 21:23N 46°28' W 003°05'2 3.2
2017-Nov-15 20:52N 46°26' W 003°05'3 3.3
2017-Nov-15 19:56N 46°23' W 003°04'9 1.4
2017-Nov-15 13:28N 46°31' W 003°11'2 2.8
2017-Nov-15 12:43N 46°29' W 003°10'4 1.5
2017-Nov-15 10:20N 46°32' W 003°09'2 3.0
2017-Nov-15 09:35N 46°30' W 003°07'0 3.5
2017-Nov-15 09:29N 46°30' W 003°07'1 3.1
2017-Nov-15 09:00N 46°29' W 003°07'2 3.6
2017-Nov-15 08:30N 46°28' W 003°08'9 1.5
2017-Nov-15 02:52N 46°35' W 003°16'9 2.8
2017-Nov-14 23:29N 46°27' W 003°09'2 3.3
2017-Nov-14 22:52N 46°25' W 003°07'46 2.4
2017-Nov-14 03:31N 47°10' W 003°20'0 7.1
2017-Nov-14 03:30N 47°11' W 003°20'5 9.5
2017-Nov-14 03:00N 47°15' W 003°20'5 9.7
2017-Nov-14 02:30N 47°20' W 003°21'5 9.7
2017-Nov-14 02:00N 47°25' W 003°21'5 9.8
2017-Nov-14 01:30N 47°30' W 003°21'5 9.7
2017-Nov-14 01:00N 47°35' W 003°22'5 9.7
2017-Nov-14 00:30N 47°40' W 003°22'4 8.3
2017-Nov-14 00:00N 47°44' W 003°22'0 0.0
2017-Nov-13 23:30N 47°44' W 003°22'0 0.2
2017-Nov-13 23:00N 47°44' W 003°22'0 0.0
2017-Nov-13 22:30N 47°44' W 003°22'0 0.0
2017-Nov-13 22:00N 47°44' W 003°22'  
2017-Nov-11 15:35N 46°34' W 003°16'1 3.2
2017-Nov-11 15:24N 46°35' W 003°17'1 3.2
2017-Nov-11 14:58N 46°36' W 003°16'1 2.5
2017-Nov-11 14:25N 46°36' W 003°15'2 3.0
2017-Nov-11 13:54N 46°34' W 003°14'37 1.2
2017-Nov-10 06:35N 47°10' W 003°28'1 8.8
2017-Nov-10 06:24N 47°11' W 003°28'4 8.9
2017-Nov-10 05:59N 47°15' W 003°27'4 8.9
2017-Nov-10 05:30N 47°19' W 003°26'4 9.0
2017-Nov-10 05:01N 47°24' W 003°25'5 9.1
2017-Nov-10 04:30N 47°28' W 003°24'5 9.2
2017-Nov-10 04:00N 47°33' W 003°24'5 9.0
2017-Nov-10 03:30N 47°37' W 003°23'5 9.4
2017-Nov-10 03:00N 47°42' W 003°22'2 3.8
2017-Nov-10 02:30N 47°44' W 003°22'0 0.0
2017-Nov-10 02:00N 47°44' W 003°22'1 1.8
2017-Nov-10 01:30N 47°43' W 003°22'5 9.1
2017-Nov-10 01:00N 47°38' W 003°22'5 9.2
2017-Nov-10 00:30N 47°34' W 003°22'  
Track history (hours):
 
Tides and Currents Weather Stations Pressure Air Temp Water Temp Dewpoint Dewpoint Depression Visibility Wind Speed Wind Dir Waves Ship Positions

F/V Les Menhirs

Last reported at 2017-Nov-20 00:17 UTC. Time now 2017-Nov-20 23:05 UTC.
Position N 46°49' W 003°32'.

Length 18 m.

Type: Fishing. MMSI: 228138000.

Date/timePositionNaut miles runAvg speedWind from/ knotsBaromVisibWave heightAir tempDewpointWater temp
2017-Nov-20 00:17N 46°49' W 003°32'10 3.1
2017-Nov-19 21:11N 46°43' W 003°22'3 0.2
2017-Nov-19 08:56N 46°41' W 003°21'6 3.2
2017-Nov-19 07:05N 46°36' W 003°15'1 3.2
2017-Nov-19 06:52N 46°36' W 003°15'2 0.9
2017-Nov-19 05:00N 46°37' W 003°13'12 3.0
2017-Nov-19 00:53N 46°44' W 003°27'0 0.0
2017-Nov-18 20:20N 46°45' W 003°27'1 3.2
2017-Nov-18 19:52N 46°43' W 003°27'3 3.0
2017-Nov-18 18:53N 46°42' W 003°23'1 0.5
2017-Nov-18 16:10N 46°42' W 003°25'1 3.1
2017-Nov-18 16:00N 46°42' W 003°25'4 2.5
2017-Nov-18 14:26N 46°39' W 003°22'1 0.2
2017-Nov-18 09:41N 46°39' W 003°20'2 3.4
2017-Nov-18 09:15N 46°38' W 003°19'1 3.6
2017-Nov-18 08:57N 46°37' W 003°18'2 3.2
2017-Nov-18 08:26N 46°36' W 003°17'8 1.3
2017-Nov-18 02:18N 46°43' W 003°19'30 2.2
2017-Nov-17 12:34N 47°13' W 003°26'1 8.8
2017-Nov-17 12:27N 47°14' W 003°26'4 8.8
2017-Nov-17 12:00N 47°18' W 003°24'4 8.8
2017-Nov-17 11:30N 47°22' W 003°23'4 8.7
2017-Nov-17 11:00N 47°26' W 003°21'4 8.9
2017-Nov-17 10:30N 47°30' W 003°22'4 9.0
2017-Nov-17 10:00N 47°35' W 003°23'4 8.9
2017-Nov-17 09:30N 47°39' W 003°22'4 8.7
2017-Nov-17 09:00N 47°44' W 003°22'0 0.0
2017-Nov-17 08:30N 47°44' W 003°22'0 0.0
2017-Nov-17 08:00N 47°44' W 003°22'0 0.0
2017-Nov-17 07:30N 47°44' W 003°22'0 0.0
2017-Nov-17 07:00N 47°44' W 003°22'0 0.0
2017-Nov-17 06:30N 47°44' W 003°22'0 0.0
2017-Nov-17 06:00N 47°44' W 003°22'0 0.0
2017-Nov-17 05:30N 47°44' W 003°22'0 0.0
2017-Nov-17 05:00N 47°44' W 003°22'0 0.0
2017-Nov-17 04:30N 47°44' W 003°22'0 0.0
2017-Nov-17 04:00N 47°44' W 003°22'0 0.0
2017-Nov-17 03:30N 47°44' W 003°22'0 0.0
2017-Nov-17 03:00N 47°44' W 003°22'0 0.0
2017-Nov-17 02:30N 47°44' W 003°22'0 0.2
2017-Nov-17 02:00N 47°44' W 003°22'0 0.3
2017-Nov-17 01:30N 47°44' W 003°22'0 0.0
2017-Nov-17 01:00N 47°44' W 003°22'0 0.0
2017-Nov-17 00:30N 47°44' W 003°22'4 8.1
2017-Nov-17 00:00N 47°40' W 003°22'5 9.5
2017-Nov-16 23:30N 47°35' W 003°22'5 9.4
2017-Nov-16 23:00N 47°30' W 003°21'5 9.6
2017-Nov-16 22:30N 47°26' W 003°20'5 9.7
2017-Nov-16 22:00N 47°21' W 003°20'5 9.6
2017-Nov-16 21:30N 47°16' W 003°20'5 9.4
2017-Nov-16 20:57N 47°11' W 003°19'4 9.3
2017-Nov-16 20:29N 47°06' W 003°18'5 9.4
2017-Nov-16 20:00N 47°02' W 003°18'5 9.2
2017-Nov-16 19:30N 46°57' W 003°17'5 9.1
2017-Nov-16 18:59N 46°53' W 003°16'5 7.2
2017-Nov-16 18:15N 46°47' W 003°16'3 3.0
2017-Nov-16 17:13N 46°45' W 003°14'3 3.2
2017-Nov-16 16:18N 46°42' W 003°14'1 3.3
2017-Nov-16 15:53N 46°40' W 003°14'1 1.7
2017-Nov-16 15:28N 46°40' W 003°14'1 3.1
2017-Nov-16 15:00N 46°38' W 003°13'2 3.1
2017-Nov-16 14:30N 46°37' W 003°12'2 2.6
2017-Nov-16 13:49N 46°35' W 003°11'1 3.3
2017-Nov-16 13:29N 46°34' W 003°11'2 3.2
2017-Nov-16 13:00N 46°33' W 003°10'2 3.3
2017-Nov-16 12:30N 46°31' W 003°09'3 3.2
2017-Nov-16 11:38N 46°29' W 003°06'0 3.4
2017-Nov-16 11:30N 46°29' W 003°06'2 3.5
2017-Nov-16 11:00N 46°27' W 003°05'2 3.4
2017-Nov-16 10:29N 46°25' W 003°04'1 2.8
2017-Nov-16 10:00N 46°24' W 003°04'4 0.3
2017-Nov-15 21:40N 46°27' W 003°05'0 0.8
2017-Nov-15 21:23N 46°28' W 003°05'2 3.2
2017-Nov-15 20:52N 46°26' W 003°05'3 3.3
2017-Nov-15 19:56N 46°23' W 003°04'9 1.4
2017-Nov-15 13:28N 46°31' W 003°11'2 2.8
2017-Nov-15 12:43N 46°29' W 003°10'4 1.5
2017-Nov-15 10:20N 46°32' W 003°09'2 3.0
2017-Nov-15 09:35N 46°30' W 003°07'0 3.5
2017-Nov-15 09:29N 46°30' W 003°07'1 3.1
2017-Nov-15 09:00N 46°29' W 003°07'2 3.6
2017-Nov-15 08:30N 46°28' W 003°08'9 1.5
2017-Nov-15 02:52N 46°35' W 003°16'9 2.8
2017-Nov-14 23:29N 46°27' W 003°09'2 3.3
2017-Nov-14 22:52N 46°25' W 003°07'46 2.4
2017-Nov-14 03:31N 47°10' W 003°20'0 7.1
2017-Nov-14 03:30N 47°11' W 003°20'5 9.5
2017-Nov-14 03:00N 47°15' W 003°20'5 9.7
2017-Nov-14 02:30N 47°20' W 003°21'5 9.7
2017-Nov-14 02:00N 47°25' W 003°21'5 9.8
2017-Nov-14 01:30N 47°30' W 003°21'5 9.7
2017-Nov-14 01:00N 47°35' W 003°22'5 9.7
2017-Nov-14 00:30N 47°40' W 003°22'4 8.3
2017-Nov-14 00:00N 47°44' W 003°22'0 0.0
2017-Nov-13 23:30N 47°44' W 003°22'0 0.2
2017-Nov-13 23:00N 47°44' W 003°22'0 0.0
2017-Nov-13 22:30N 47°44' W 003°22'0 0.0
2017-Nov-13 22:00N 47°44' W 003°22'  
2017-Nov-11 15:35N 46°34' W 003°16'1 3.2
2017-Nov-11 15:24N 46°35' W 003°17'1 3.2
2017-Nov-11 14:58N 46°36' W 003°16'1 2.5
2017-Nov-11 14:25N 46°36' W 003°15'2 3.0
2017-Nov-11 13:54N 46°34' W 003°14'37 1.2
2017-Nov-10 06:35N 47°10' W 003°28'1 8.8
2017-Nov-10 06:24N 47°11' W 003°28'4 8.9
2017-Nov-10 05:59N 47°15' W 003°27'4 8.9
2017-Nov-10 05:30N 47°19' W 003°26'4 9.0
2017-Nov-10 05:01N 47°24' W 003°25'5 9.1
2017-Nov-10 04:30N 47°28' W 003°24'5 9.2
2017-Nov-10 04:00N 47°33' W 003°24'5 9.0
2017-Nov-10 03:30N 47°37' W 003°23'5 9.4
2017-Nov-10 03:00N 47°42' W 003°22'2 3.8
2017-Nov-10 02:30N 47°44' W 003°22'0 0.0
2017-Nov-10 02:00N 47°44' W 003°22'1 1.8
2017-Nov-10 01:30N 47°43' W 003°22'5 9.1
2017-Nov-10 01:00N 47°38' W 003°22'5 9.2
2017-Nov-10 00:30N 47°34' W 003°22'  

Dump ship's entire track history